Lemon Grove, CA

4:43 AM PST on December 29, 2014 (GMT -0800)
North Island Naval Air Station | Change Station
CLOSE
Current Station
Airport
Location: North Island,
Elevation: 23 ft
Nearby Weather Stations

Elev 23 ft 32.69 °N, 117.21 °W | Updated 51 minutes ago

Clear
Clear
47 °F
Feels Like 47 °F
N
0
Wind Variable Wind from North
Gusts 5 mph

Today
High -- | Low -- °F
--% Chance of Precip.
Yesterday
High -- | Low -- °F
Precip. -- in
6:49 AM 4:50 PM
First Quarter, 58% visible
Pressure 30.13 in
Visibility 10.0 miles
Clouds
Dew Point 35 °F
Humidity 63%
Rainfall 0.00 in
Snow Depth Not available.
UV Not available.
Pollen 5.50 out of 12
Air Quality Not available.
Flu Activity Not available.
METAR KNZY 291152Z AUTO 00000KT 10SM 08/02 A3013 RMK AO2 SLP203 T00830017 10111 20072 58007 PWINO $

More Conditions Fewer Conditions

Pressure 30.13 in
Visibility 10.0 miles
Clouds
Dew Point 35 °F
Humidity 63%
Rainfall 0.00 in
Snow Depth Not available.
UV Not available.
Pollen 5.50 out of 12
Air Quality Not available.
Flu Activity Not available.
METAR KNZY 291152Z AUTO 00000KT 10SM 08/02 A3013 RMK AO2 SLP203 T00830017 10111 20072 58007 PWINO $

More Conditions Fewer Conditions

10-Day Weather Forecast

Almanac

Astronomy

Dec. 29, 2014 Rise Set
Actual Time
Civil Twilight
Nautical Twilight
Astronomical Twilight
Moon
Length of Visible Light
Length of Day
Tomorrow will be .
, % of the Moon is Illuminated

Today's Extremes

State Highs State Lows

Community

WunderPhotos

Upload Photos

1,781,574 photos uploaded!

WunderBlogs® & News

Nearby

Air Quality

  Air Quality AQ Index Pollutant
Not available.

Snow Depth

Station Depth Elevation

Earthquake Activity

City Distance Mag. Time & Date
Minimum magnitude displayed is 2.5.

Coastal Water Temperatures

Place Temperature

Nearby Weather Stations